Time;durP1;ratioP1;P1;durP2;ratioP2;P2;SDS_P1;SDS_P2;PMS_P1;PMS_P2;Temp;Humidity;BMP_temperature;BMP_pressure;BME280_temperature;BME280_humidity;BME280_pressure;Samples;Min_cycle;Max_cycle;Signal;HPM_P1;HPM_P2
2023/07/01 00:00:14;;;;;;;6.07;5.47;;;17.80;1.00;;;;;;6184775;23;20415;-93
2023/07/01 00:02:41;;;;;;;8.37;6.00;;;;;;;;;;6184455;23;20439;-92
2023/07/01 00:05:09;;;;;;;10.03;8.70;;;17.60;1.00;;;;;;6178230;23;20889;-91
2023/07/01 00:07:36;;;;;;;13.57;9.90;;;17.80;15.40;;;;;;6168621;23;20479;-91
2023/07/01 00:10:05;;;;;;;9.93;8.53;;;17.60;1.00;;;;;;6184516;23;20443;-91
2023/07/01 00:12:32;;;;;;;9.70;8.70;;;17.60;1.00;;;;;;6184583;23;20500;-92
2023/07/01 00:14:59;;;;;;;10.20;7.90;;;;;;;;;;6182627;23;20404;-91
2023/07/01 00:17:27;;;;;;;8.83;7.90;;;;;;;;;;6181340;23;20444;-91
2023/07/01 00:19:54;;;;;;;8.40;7.60;;;;;;;;;;6184250;23;20392;-91
2023/07/01 00:22:21;;;;;;;7.83;7.10;;;;;;;;;;6183331;23;20432;-91
2023/07/01 00:24:48;;;;;;;8.87;7.07;;;17.70;1.00;;;;;;6161657;23;20412;-91
2023/07/01 00:27:17;;;;;;;6.43;5.70;;;17.70;1.00;;;;;;6160331;23;20404;-91
2023/07/01 00:29:44;;;;;;;8.40;6.40;;;;;;;;;;6160132;23;20396;-91
2023/07/01 00:32:12;;;;;;;7.83;6.93;;;17.70;1.00;;;;;;6160179;23;20452;-91
2023/07/01 00:34:39;;;;;;;9.93;8.13;;;;;;;;;;6159184;23;20480;-91
2023/07/01 00:37:06;;;;;;;9.67;7.80;;;17.70;1.00;;;;;;6158897;23;20463;-91
2023/07/01 00:39:34;;;;;;;12.67;7.90;;;;;;;;;;6159692;23;20459;-92
2023/07/01 00:42:01;;;;;;;8.40;7.60;;;;;;;;;;6169557;23;20456;-92
2023/07/01 00:44:30;;;;;;;8.80;7.80;;;17.70;58.10;;;;;;6184225;23;20418;-92
2023/07/01 00:46:57;;;;;;;7.90;7.10;;;;;;;;;;6173213;23;20487;-92
2023/07/01 00:49:25;;;;;;;9.13;7.17;;;;;;;;;;6159274;23;20399;-92
2023/07/01 00:51:52;;;;;;;7.93;7.30;;;;;;;;;;6159062;23;20428;-92
2023/07/01 00:54:19;;;;;;;7.37;6.40;;;;;;;;;;6159301;23;20396;-92
2023/07/01 00:56:47;;;;;;;9.77;7.03;;;;;;;;;;6161800;23;20488;-91
2023/07/01 00:59:14;;;;;;;8.30;7.37;;;;;;;;;;6161080;23;20408;-91
2023/07/01 01:01:48;;;;;;;8.13;7.33;;;17.60;1.00;;;;;;6159759;23;20431;-92
2023/07/01 01:04:21;;;;;;;9.60;8.40;;;17.70;1.00;;;;;;6160170;23;20408;-91
2023/07/01 01:06:55;;;;;;;10.13;9.23;;;17.60;1.00;;;;;;6159472;23;20885;-92
2023/07/01 01:09:28;;;;;;;9.10;7.90;;;17.60;1.00;;;;;;6159969;23;20404;-91
2023/07/01 01:11:56;;;;;;;8.27;7.47;;;;;;;;;;6159280;23;20440;-92
2023/07/01 01:14:24;;;;;;;9.93;7.10;;;17.70;1.00;;;;;;6158900;23;20436;-92
2023/07/01 01:16:54;;;;;;;8.33;7.50;;;17.70;1.00;;;;;;6178151;23;20848;-92
2023/07/01 01:19:28;;;;;;;8.37;7.10;;;17.60;1.00;;;;;;6161348;23;20439;-92
2023/07/01 01:22:09;;;;;;;7.93;7.13;;;17.70;1.00;;;;;;6160743;23;20463;-92
2023/07/01 01:24:41;;;;;;;8.03;7.23;;;17.70;1.00;;;;;;6182621;23;20388;-92
2023/07/01 01:27:14;;;;;;;7.43;6.73;;;17.60;1.00;;;;;;6184229;23;20385;-93
2023/07/01 01:29:43;;;;;;;8.13;6.83;;;17.60;1.00;;;;;;6175455;23;20451;-91
2023/07/01 01:32:11;;;;;;;7.57;6.87;;;17.70;1.00;;;;;;6174029;23;20490;-91
2023/07/01 01:34:38;;;;;;;7.67;6.97;;;;;;;;;;6164315;23;20920;-92
2023/07/01 01:37:12;;;;;;;8.60;7.80;;;17.70;1.00;;;;;;6162669;23;20436;-93
2023/07/01 01:39:44;;;;;;;8.60;7.80;;;17.70;1.00;;;;;;6161648;23;20408;-91
2023/07/01 01:42:18;;;;;;;9.00;8.10;;;17.60;1.00;;;;;;6161252;23;20506;-91
2023/07/01 01:44:52;;;;;;;9.30;7.47;;;17.70;22.20;;;;;;6165992;23;20392;-92
2023/07/01 01:47:21;;;;;;;7.30;6.70;;;17.60;1.00;;;;;;6181070;23;20409;-92
2023/07/01 01:49:54;;;;;;;8.67;7.07;;;17.50;1.00;;;;;;6163900;23;20416;-91
2023/07/01 01:52:24;;;;;;;9.50;7.30;;;17.70;99.80;;;;;;6176350;23;20416;-93
2023/07/01 01:54:56;;;;;;;8.30;7.60;;;17.60;1.00;;;;;;6183919;23;20412;-94
2023/07/01 01:57:23;;;;;;;7.40;6.70;;;;;;;;;;6184012;23;20415;-93
2023/07/01 01:59:52;;;;;;;7.60;6.90;;;17.60;1.00;;;;;;6182207;23;20439;-91
2023/07/01 02:02:22;;;;;;;7.50;6.70;;;17.50;1.00;;;;;;6166332;23;20432;-91
2023/07/01 02:04:50;;;;;;;7.37;6.77;;;;;;;;;;6162971;23;20434;-91
2023/07/01 02:07:18;;;;;;;10.80;7.57;;;;;;;;;;6162844;23;20416;-91
2023/07/01 02:09:45;;;;;;;8.07;6.93;;;;;;;;;;6162816;23;20419;-92
2023/07/01 02:12:13;;;;;;;8.77;6.60;;;17.50;1.00;;;;;;6162435;23;20458;-92
2023/07/01 02:14:41;;;;;;;7.90;7.20;;;;;;;;;;6162053;23;20431;-92
2023/07/01 02:17:10;;;;;;;8.60;7.40;;;17.60;1.00;;;;;;6161613;23;20440;-91
2023/07/01 02:19:37;;;;;;;8.17;6.70;;;;;;;;;;6161478;23;20416;-91
2023/07/01 02:22:05;;;;;;;7.77;7.07;;;;;;;;;;6170584;23;20412;-92
2023/07/01 02:24:32;;;;;;;7.30;6.60;;;;;;;;;;6181390;23;20439;-91
2023/07/01 02:27:00;;;;;;;8.20;7.40;;;;;;;;;;6177100;23;20925;-91
2023/07/01 02:29:28;;;;;;;7.43;6.83;;;;;;;;;;6175581;23;20415;-91
2023/07/01 02:31:55;;;;;;;10.37;8.60;;;17.50;12.70;;;;;;6168718;23;20427;-91
2023/07/01 02:34:27;;;;;;;8.53;6.80;;;17.40;41.50;;;;;;6173476;23;20415;-91
2023/07/01 02:36:57;;;;;;;8.77;7.10;;;17.40;42.90;;;;;;6182778;23;20396;-91
2023/07/01 02:39:25;;;;;;;8.00;7.30;;;;;;;;;;6163829;23;20952;-91
2023/07/01 02:41:58;;;;;;;8.83;7.97;;;17.40;52.00;;;;;;6162563;23;20440;-91
2023/07/01 02:44:25;;;;;;;8.50;7.70;;;;;;;;;;6163200;23;20443;-91
2023/07/01 02:46:53;;;;;;;7.70;6.70;;;;;;;;;;6177167;23;20415;-92
2023/07/01 02:49:22;;;;;;;7.77;7.00;;;17.30;99.90;;;;;;6164097;23;20462;-91
2023/07/01 02:51:56;;;;;;;8.23;7.53;;;17.40;99.90;;;;;;6163877;23;20436;-92
2023/07/01 02:54:23;;;;;;;8.53;7.73;;;;;;;;;;6162440;23;20416;-92
2023/07/01 02:56:50;;;;;;;7.37;6.77;;;17.40;99.90;;;;;;6161733;23;20493;-91
2023/07/01 02:59:18;;;;;;;7.77;7.03;;;;;;;;;;6162989;23;20407;-91
2023/07/01 03:01:49;;;;;;;7.83;7.13;;;17.30;99.90;;;;;;6163134;23;20946;-92
2023/07/01 03:04:17;;;;;;;8.87;8.00;;;;;;;;;;6164167;23;20427;-92
2023/07/01 03:06:47;;;;;;;9.17;8.27;;;;;;;;;;6165070;23;20412;-91
2023/07/01 03:09:19;;;;;;;8.87;8.10;;;17.20;99.90;;;;;;6184320;23;20404;-94
2023/07/01 03:11:46;;;;;;;11.93;8.67;;;;;;;;;;6185059;23;20416;-93
2023/07/01 03:14:14;;;;;;;8.90;8.00;;;;;;;;;;6184953;23;20391;-92
2023/07/01 03:16:43;;;;;;;8.87;7.57;;;;;;;;;;6184964;23;20397;-91
2023/07/01 03:19:10;;;;;;;8.80;7.87;;;17.30;99.90;;;;;;6184915;23;20450;-92
2023/07/01 03:21:39;;;;;;;8.57;7.70;;;17.00;99.90;;;;;;6184967;23;20496;-92
2023/07/01 03:24:06;;;;;;;9.23;8.37;;;;;;;;;;6184298;23;20389;-90
2023/07/01 03:26:37;;;;;;;8.20;7.40;;;17.10;99.90;;;;;;6184893;23;20428;-93
2023/07/01 03:29:04;;;;;;;9.30;8.30;;;;;;;;;;6184035;23;20412;-90
2023/07/01 03:31:32;;;;;;;9.10;8.00;;;;;;;;;;6184412;23;20428;-90
2023/07/01 03:34:00;;;;;;;14.60;7.50;;;;;;;;;;6184661;23;20483;-92
2023/07/01 03:36:27;;;;;;;8.33;7.50;;;;;;;;;;6185148;23;20408;-92
2023/07/01 03:38:57;;;;;;;8.73;7.93;;;17.00;99.90;;;;;;6173837;23;20451;-91
2023/07/01 03:41:27;;;;;;;9.03;8.13;;;;;;;;;;6178297;23;20421;-92
2023/07/01 03:43:58;;;;;;;9.40;8.23;;;17.20;99.90;;;;;;6184814;23;20396;-91
2023/07/01 03:46:25;;;;;;;10.40;8.50;;;17.20;99.90;;;;;;6184589;23;20436;-92
2023/07/01 03:48:55;;;;;;;9.73;7.60;;;17.00;99.90;;;;;;6178558;23;20413;-91
2023/07/01 03:51:25;;;;;;;9.40;8.43;;;;;;;;;;6168597;23;20436;-91
2023/07/01 03:53:53;;;;;;;9.27;8.27;;;;;;;;;;6161548;23;20397;-91
2023/07/01 03:56:20;;;;;;;9.80;8.77;;;17.10;99.90;;;;;;6161580;23;20423;-91
2023/07/01 03:58:47;;;;;;;10.33;7.90;;;;;;;;;;6161909;23;20633;-91
2023/07/01 04:01:24;;;;;;;10.03;8.40;;;17.00;99.90;;;;;;6170729;23;20447;-91
2023/07/01 04:03:53;;;;;;;10.63;9.53;;;17.10;99.90;;;;;;6184529;23;20376;-92
2023/07/01 04:06:25;;;;;;;9.57;8.50;;;;;;;;;;6184605;23;20419;-93
2023/07/01 04:08:54;;;;;;;9.03;8.13;;;;;;;;;;6182056;23;20388;-93
2023/07/01 04:11:26;;;;;;;11.73;9.13;;;17.20;99.90;;;;;;6184606;23;20422;-93
2023/07/01 04:13:53;;;;;;;10.73;9.63;;;;;;;;;;6181292;23;20417;-91
2023/07/01 04:16:23;;;;;;;9.70;8.83;;;17.20;32.00;;;;;;6183496;23;20396;-92
2023/07/01 04:18:53;;;;;;;10.50;9.40;;;;;;;;;;6184133;23;20443;-92
2023/07/01 04:21:22;;;;;;;11.53;10.27;;;;;;;;;;6180254;23;20467;-91
2023/07/01 04:23:50;;;;;;;9.23;8.43;;;;;;;;;;6163067;23;20490;-91
2023/07/01 04:26:17;;;;;;;12.07;9.63;;;;;;;;;;6164007;23;20412;-92
2023/07/01 04:28:44;;;;;;;10.07;9.13;;;17.30;1.00;;;;;;6162195;23;20419;-92
2023/07/01 04:31:16;;;;;;;10.97;9.00;;;17.30;1.00;;;;;;6161293;23;20428;-92
2023/07/01 04:33:44;;;;;;;11.67;9.73;;;17.40;1.00;;;;;;6160919;23;20687;-92
2023/07/01 04:36:11;;;;;;;11.47;8.87;;;17.30;99.90;;;;;;6167373;23;20450;-92
2023/07/01 04:38:39;;;;;;;11.57;9.37;;;;;;;;;;6181556;23;20432;-91
2023/07/01 04:41:09;;;;;;;13.70;9.70;;;;;;;;;;6160953;23;20428;-91
2023/07/01 04:43:36;;;;;;;9.83;8.77;;;;;;;;;;6168489;23;20403;-92
2023/07/01 04:46:04;;;;;;;8.87;8.10;;;;;;;;;;6160921;23;20396;-92
2023/07/01 04:48:32;;;;;;;12.17;8.63;;;17.70;1.00;;;;;;6161770;23;20396;-92
2023/07/01 04:51:02;;;;;;;9.73;8.93;;;17.50;1.00;;;;;;6159596;23;20921;-92
2023/07/01 04:53:29;;;;;;;10.33;8.87;;;;;;;;;;6159147;23;20427;-92
2023/07/01 04:55:56;;;;;;;9.63;8.73;;;17.50;1.00;;;;;;6160531;23;20471;-92
2023/07/01 04:58:29;;;;;;;10.03;8.10;;;17.50;99.90;;;;;;6159662;23;20845;-92
2023/07/01 07:50:30;;;;;;;4.27;3.60;;;20.70;1.00;;;;;;6069819;23;22061;-93
2023/07/01 07:52:59;;;;;;;6.37;3.77;;;;;;;;;;6176679;23;20396;-92
2023/07/01 07:55:29;;;;;;;3.57;3.30;;;;;;;;;;6184404;23;20431;-92
2023/07/01 07:57:56;;;;;;;4.87;3.40;;;;;;;;;;6184344;23;20427;-92
2023/07/01 08:02:59;;;;;;;5.17;4.47;;;;;;;;;;6170986;23;20514;-91
2023/07/01 08:05:28;;;;;;;5.60;3.80;;;;;;;;;;6167770;23;20444;-92
2023/07/01 08:10:50;;;;;;;6.53;5.93;;;;;;;;;;6172074;23;20429;-93
2023/07/01 08:13:18;;;;;;;4.00;3.80;;;;;;;;;;6176382;23;20853;-91
2023/07/01 08:15:57;;;;;;;4.23;3.27;;;21.10;1.00;;;;;;6171291;23;20393;-91
2023/07/01 08:25:43;;;;;;;4.00;2.63;;;21.30;1.00;;;;;;5992014;23;20433;-92
2023/07/01 08:28:11;;;;;;;4.67;3.70;;;;;;;;;;6168949;23;20440;-92
2023/07/01 08:30:39;;;;;;;5.53;5.03;;;21.30;1.00;;;;;;6173409;23;20432;-91
2023/07/01 08:33:08;;;;;;;6.73;6.13;;;;;;;;;;6175484;23;20439;-92
2023/07/01 08:35:46;;;;;;;3.70;3.40;;;;;;;;;;6166395;23;20491;-92
2023/07/01 08:38:32;;;;;;;2.97;2.80;;;21.30;1.00;;;;;;6164118;23;20734;-92
2023/07/01 08:41:14;;;;;;;2.50;2.40;;;21.40;1.00;;;;;;6167705;23;20490;-91
2023/07/01 08:43:43;;;;;;;3.73;3.43;;;21.50;1.00;;;;;;6164203;23;20384;-92
2023/07/01 08:46:12;;;;;;;10.30;3.27;;;;;;;;;;6166643;23;20730;-91
2023/07/01 08:48:45;;;;;;;3.50;3.20;;;21.60;1.00;;;;;;6167917;23;20490;-92
2023/07/01 08:51:22;;;;;;;5.93;3.67;;;21.70;1.00;;;;;;6176182;23;20467;-90
2023/07/01 08:53:55;;;;;;;6.47;3.80;;;21.60;1.00;;;;;;6173200;23;20408;-92
2023/07/01 08:56:31;;;;;;;5.00;3.40;;;21.70;1.00;;;;;;6168164;23;20456;-91
2023/07/01 08:59:01;;;;;;;2.77;2.57;;;;;;;;;;6165091;23;20442;-92
2023/07/01 09:01:36;;;;;;;2.93;2.60;;;21.90;1.00;;;;;;6171446;23;20460;-91
2023/07/01 09:04:03;;;;;;;3.83;3.27;;;;;;;;;;6171209;23;20404;-92
2023/07/01 09:06:31;;;;;;;4.07;2.80;;;;;;;;;;6165263;23;20404;-92
2023/07/01 09:09:03;;;;;;;2.67;2.47;;;;;;;;;;6165598;23;20411;-91
2023/07/01 09:11:39;;;;;;;3.60;2.87;;;21.90;1.00;;;;;;6163671;23;20424;-92
2023/07/01 09:14:18;;;;;;;3.90;3.37;;;22.10;1.00;;;;;;6171669;23;20407;-92
2023/07/01 09:16:45;;;;;;;3.10;2.90;;;;;;;;;;6164148;23;20926;-92
2023/07/01 09:19:16;;;;;;;2.60;2.37;;;22.30;1.00;;;;;;6163245;23;20459;-90
2023/07/01 09:21:49;;;;;;;2.87;2.70;;;;;;;;;;6146762;23;20437;-91
2023/07/01 09:24:38;;;;;;;6.40;3.57;;;22.50;1.00;;;;;;6168697;23;20412;-91
2023/07/01 09:27:10;;;;;;;5.30;3.40;;;22.50;1.00;;;;;;6170213;23;20397;-92
2023/07/01 09:29:40;;;;;;;2.70;2.50;;;;;;;;;;6180026;23;20389;-92
2023/07/01 09:32:39;;;;;;;2.43;2.23;;;22.80;1.00;;;;;;6183212;23;20420;-93
2023/07/01 09:35:07;;;;;;;4.23;2.67;;;22.80;1.00;;;;;;6183269;23;20504;-93
2023/07/01 09:40:57;;;;;;;3.70;3.20;;;;;;;;;;6167546;23;20408;-92
2023/07/01 09:46:46;;;;;;;3.00;2.80;;;22.60;1.00;;;;;;6166967;23;20400;-91
2023/07/01 09:52:00;;;;;;;3.57;3.27;;;;;;;;;;6161630;23;20426;-91
2023/07/01 09:54:42;;;;;;;3.10;2.90;;;22.80;1.00;;;;;;6166230;23;20416;-91
2023/07/01 09:57:09;;;;;;;3.40;3.10;;;;;;;;;;6170109;23;20400;-91
2023/07/01 09:59:40;;;;;;;5.03;4.23;;;23.00;1.00;;;;;;6179169;23;20527;-92
2023/07/01 10:02:12;;;;;;;5.50;3.80;;;23.00;1.00;;;;;;6169436;23;20444;-91
2023/07/01 10:04:48;;;;;;;4.47;3.53;;;22.90;1.00;;;;;;6166196;23;20408;-91
2023/07/01 10:07:18;;;;;;;9.33;3.67;;;22.70;1.00;;;;;;6165358;23;20427;-91
2023/07/01 10:09:56;;;;;;;4.27;3.83;;;22.90;1.00;;;;;;6165460;23;20464;-91
2023/07/01 10:12:27;;;;;;;3.70;3.17;;;;;;;;;;6165314;23;20475;-91
2023/07/01 10:14:59;;;;;;;3.43;2.47;;;23.00;1.00;;;;;;6168974;23;20389;-92
2023/07/01 10:17:45;;;;;;;5.60;4.93;;;23.20;1.00;;;;;;6166000;23;20412;-91
2023/07/01 10:20:26;;;;;;;4.10;3.40;;;23.30;1.00;;;;;;6163222;23;20435;-92
2023/07/01 10:22:56;;;;;;;6.93;3.03;;;;;;;;;;6163884;23;20373;-91
2023/07/01 10:25:42;;;;;;;4.23;3.93;;;20.40;1.00;;;;;;6167401;23;20407;-91
2023/07/01 10:28:09;;;;;;;8.27;3.60;;;;;;;;;;6164955;23;20916;-92
2023/07/01 10:31:15;;;;;;;3.57;3.27;;;23.40;1.00;;;;;;6166223;23;20427;-91
2023/07/01 10:33:59;;;;;;;4.33;3.43;;;23.50;1.00;;;;;;6167138;23;20416;-91
2023/07/01 10:36:29;;;;;;;8.63;3.27;;;;;;;;;;6164887;23;20398;-92
2023/07/01 10:39:30;;;;;;;3.90;3.57;;;23.30;99.90;;;;;;6164957;23;20498;-92
2023/07/01 10:42:06;;;;;;;6.97;3.77;;;23.20;99.90;;;;;;6169093;23;20439;-92
2023/07/01 10:44:35;;;;;;;5.90;5.30;;;;;;;;;;6167962;23;20776;-92
2023/07/01 10:47:33;;;;;;;5.50;4.30;;;23.50;1.00;;;;;;6165271;23;20422;-92
2023/07/01 10:50:02;;;;;;;8.37;5.17;;;;;;;;;;6163013;23;20867;-92
2023/07/01 10:52:32;;;;;;;3.70;3.40;;;23.40;1.00;;;;;;6170216;23;20412;-91
2023/07/01 10:55:02;;;;;;;7.43;3.60;;;;;;;;;;6176835;23;20432;-91
2023/07/01 10:57:30;;;;;;;5.20;4.70;;;23.50;99.90;;;;;;6162004;23;20929;-91
2023/07/01 11:00:39;;;;;;;3.20;3.00;;;23.50;99.90;;;;;;6167098;23;20471;-91
2023/07/01 11:03:54;;;;;;;3.50;3.20;;;23.60;1.00;;;;;;6185117;23;20438;-92
2023/07/01 11:06:23;;;;;;;3.43;3.10;;;;;;;;;;6168534;23;20446;-91
2023/07/01 11:08:52;;;;;;;10.10;3.60;;;23.70;1.00;;;;;;6172818;23;20424;-91
2023/07/01 11:11:21;;;;;;;3.70;3.40;;;23.70;99.90;;;;;;6169302;23;20420;-92
2023/07/01 11:14:04;;;;;;;4.30;3.60;;;23.70;1.00;;;;;;6184294;23;20411;-92
2023/07/01 11:16:32;;;;;;;3.43;3.10;;;;;;;;;;6184051;23;20388;-92
2023/07/01 11:19:04;;;;;;;4.07;3.50;;;23.80;99.90;;;;;;6183971;23;20519;-92
2023/07/01 11:21:32;;;;;;;4.10;3.70;;;23.80;1.00;;;;;;6181204;23;20431;-91
2023/07/01 11:24:04;;;;;;;4.10;3.80;;;23.90;1.00;;;;;;6180736;23;20404;-92
2023/07/01 11:26:46;;;;;;;3.37;3.07;;;23.90;1.00;;;;;;6169190;23;20455;-91
2023/07/01 11:29:17;;;;;;;5.70;3.40;;;24.20;1.00;;;;;;6164628;23;20400;-91
2023/07/01 11:32:03;;;;;;;5.73;5.00;;;24.20;1.00;;;;;;6164770;23;20750;-92
2023/07/01 11:34:35;;;;;;;3.27;3.07;;;24.20;99.90;;;;;;6163949;23;20922;-92
2023/07/01 11:37:02;;;;;;;4.17;3.23;;;24.30;99.90;;;;;;6184403;23;20410;-91
2023/07/01 11:39:31;;;;;;;3.43;3.20;;;24.40;99.90;;;;;;6183930;23;20509;-92
2023/07/01 11:42:00;;;;;;;7.23;3.97;;;24.20;99.90;;;;;;6184169;23;20459;-92
2023/07/01 11:44:28;;;;;;;4.63;3.90;;;24.20;99.90;;;;;;6182820;23;20400;-91
2023/07/01 11:46:58;;;;;;;5.70;5.17;;;24.20;99.90;;;;;;6178273;23;20396;-91
2023/07/01 11:49:29;;;;;;;3.70;3.37;;;24.10;99.90;;;;;;6181474;23;20403;-90
2023/07/01 11:51:59;;;;;;;5.37;3.90;;;24.10;1.00;;;;;;6179250;23;20491;-92
2023/07/01 11:54:44;;;;;;;5.83;4.10;;;24.20;1.00;;;;;;6178579;23;20400;-91
2023/07/01 11:57:18;;;;;;;4.03;3.03;;;24.10;1.00;;;;;;6167434;23;20416;-91
2023/07/01 11:59:58;;;;;;;4.50;4.10;;;24.20;1.00;;;;;;6181685;23;20428;-91
2023/07/01 12:02:28;;;;;;;5.80;5.20;;;24.40;1.00;;;;;;6183115;23;20443;-92
2023/07/01 12:04:56;;;;;;;7.57;5.20;;;;;;;;;;6176967;23;20403;-91
2023/07/01 12:07:25;;;;;;;6.03;4.83;;;24.10;1.00;;;;;;6168869;23;20415;-92
2023/07/01 12:09:52;;;;;;;4.70;4.30;;;;;;;;;;6170113;23;20428;-92
2023/07/01 12:12:35;;;;;;;9.13;5.30;;;23.80;99.90;;;;;;6171500;23;20436;-92
2023/07/01 12:15:02;;;;;;;5.43;4.37;;;;;;;;;;6170582;23;20451;-93
2023/07/01 12:17:31;;;;;;;7.20;4.20;;;23.60;1.00;;;;;;6162233;23;20404;-92
2023/07/01 12:20:13;;;;;;;5.60;4.00;;;23.70;99.90;;;;;;6163025;23;20439;-93
2023/07/01 12:26:45;;;;;;;5.37;3.47;;;24.00;99.90;;;;;;6008172;23;20426;-92
2023/07/01 12:29:14;;;;;;;15.80;7.70;;;;;;;;;;6046166;23;20416;-92
2023/07/01 12:31:44;;;;;;;4.83;4.33;;;;;;;;;;6164755;23;20432;-92
2023/07/01 12:34:17;;;;;;;4.53;3.97;;;23.80;1.00;;;;;;6163297;23;20415;-91
2023/07/01 12:36:47;;;;;;;5.07;3.70;;;23.80;99.90;;;;;;6164885;23;20404;-91
2023/07/01 12:39:32;;;;;;;5.03;4.40;;;23.90;99.90;;;;;;6164207;23;20686;-92
2023/07/01 12:45:33;;;;;;;4.10;3.60;;;24.30;1.00;;;;;;6097462;23;20420;-92
2023/07/01 12:57:32;;;;;;;4.13;3.03;;;24.70;99.90;;;;;;6165177;23;20385;-91
2023/07/01 13:03:22;;;;;;;6.50;3.17;;;24.80;1.00;;;;;;6102706;23;20385;-91
2023/07/01 13:21:23;;;;;;;3.83;3.27;;;24.70;99.90;;;;;;6149021;23;20414;-90
2023/07/01 13:23:53;;;;;;;5.20;4.20;;;;;;;;;;6144968;23;20397;-89
2023/07/01 13:26:20;;;;;;;4.90;4.10;;;24.60;99.90;;;;;;6135762;23;20415;-89
2023/07/01 13:28:47;;;;;;;4.77;3.80;;;24.60;1.00;;;;;;6133684;23;20490;-89
2023/07/01 13:31:23;;;;;;;4.77;4.40;;;24.50;99.90;;;;;;6105978;23;20401;-89
2023/07/01 13:44:19;;;;;;;5.90;5.00;;;23.90;99.90;;;;;;6128585;23;20534;-88
2023/07/01 13:46:47;;;;;;;6.10;5.10;;;23.90;99.90;;;;;;6163578;23;20412;-88
2023/07/01 13:49:21;;;;;;;12.23;5.63;;;23.80;99.90;;;;;;6161684;23;20404;-89
2023/07/01 13:51:52;;;;;;;6.23;5.10;;;23.90;1.00;;;;;;6167915;23;20456;-89
2023/07/01 13:54:22;;;;;;;6.67;5.47;;;23.80;1.00;;;;;;6164256;23;20447;-89
2023/07/01 13:56:49;;;;;;;5.53;4.97;;;23.70;1.00;;;;;;6172084;23;20412;-90
2023/07/01 13:59:20;;;;;;;4.77;3.87;;;23.60;99.90;;;;;;6175482;23;20917;-89
2023/07/01 14:02:02;;;;;;;7.97;5.77;;;23.60;99.90;;;;;;6174685;23;20467;-89
2023/07/01 14:04:31;;;;;;;5.23;4.73;;;;;;;;;;6169159;23;20416;-89
2023/07/01 14:06:58;;;;;;;6.63;4.40;;;23.50;99.90;;;;;;6168096;23;20435;-89
2023/07/01 14:09:28;;;;;;;4.17;3.80;;;23.70;1.00;;;;;;6169026;23;20427;-89
2023/07/01 14:12:00;;;;;;;7.20;4.33;;;23.40;99.90;;;;;;6180656;23;20396;-86
2023/07/01 14:14:34;;;;;;;5.10;4.60;;;23.40;1.00;;;;;;6183725;23;20415;-86
2023/07/01 14:17:02;;;;;;;4.53;4.20;;;23.30;99.90;;;;;;6183798;23;20405;-87
2023/07/01 14:19:30;;;;;;;8.10;4.17;;;;;;;;;;6169899;23;20409;-90
2023/07/01 14:22:08;;;;;;;4.80;4.00;;;23.20;1.00;;;;;;6167204;23;20893;-89
2023/07/01 14:24:37;;;;;;;4.17;3.87;;;23.20;99.90;;;;;;6164800;23;20459;-90
2023/07/01 14:27:04;;;;;;;6.60;4.33;;;;;;;;;;6164505;23;20455;-90
2023/07/01 14:29:34;;;;;;;8.17;3.53;;;21.10;99.90;;;;;;6170987;23;20549;-89
2023/07/01 14:32:08;;;;;;;7.77;5.00;;;23.20;99.90;;;;;;6168768;23;20728;-89
2023/07/01 14:34:43;;;;;;;5.57;4.97;;;23.20;99.90;;;;;;6167942;23;20506;-88
2023/07/01 14:37:12;;;;;;;5.10;3.43;;;23.10;99.90;;;;;;6166764;23;20466;-89
2023/07/01 14:39:44;;;;;;;3.90;2.90;;;23.10;99.90;;;;;;6177186;23;20415;-89
2023/07/01 14:42:15;;;;;;;4.90;3.53;;;23.10;99.90;;;;;;6164377;23;20377;-89
2023/07/01 14:44:44;;;;;;;4.40;4.00;;;23.50;1.00;;;;;;6163254;23;20478;-89
2023/07/01 14:47:11;;;;;;;6.47;3.93;;;;;;;;;;6178231;23;20468;-87
2023/07/01 14:49:41;;;;;;;4.97;4.30;;;23.10;99.90;;;;;;6185604;23;20400;-87
2023/07/01 14:52:11;;;;;;;7.17;4.30;;;23.10;99.90;;;;;;6175180;23;20416;-88
2023/07/01 14:54:40;;;;;;;5.00;4.00;;;23.20;99.90;;;;;;6165900;23;20515;-89
2023/07/01 14:57:10;;;;;;;4.53;4.03;;;23.20;99.90;;;;;;6173634;23;20420;-89
2023/07/01 14:59:38;;;;;;;5.90;3.73;;;;;;;;;;6174371;23;20428;-88
2023/07/01 15:02:14;;;;;;;3.30;2.90;;;23.30;99.90;;;;;;6165866;23;20416;-89
2023/07/01 15:04:44;;;;;;;6.67;3.17;;;23.30;99.90;;;;;;6166200;23;20747;-89
2023/07/01 15:07:11;;;;;;;4.43;3.30;;;23.60;1.00;;;;;;6169479;23;20474;-89
2023/07/01 15:09:38;;;;;;;4.93;3.90;;;23.70;1.00;;;;;;6183754;23;20396;-89
2023/07/01 15:12:06;;;;;;;3.30;3.00;;;;;;;;;;6184505;23;20494;-87
2023/07/01 15:14:33;;;;;;;7.30;3.00;;;;;;;;;;6184859;23;20487;-88
2023/07/01 15:17:01;;;;;;;4.47;3.43;;;;;;;;;;6184638;23;20412;-86
2023/07/01 15:19:29;;;;;;;7.40;3.10;;;23.20;99.90;;;;;;6185071;23;20417;-87
2023/07/01 15:21:57;;;;;;;8.63;3.83;;;;;;;;;;6184598;23;20498;-86
2023/07/01 15:24:24;;;;;;;8.87;6.40;;;;;;;;;;6184845;23;20412;-87
2023/07/01 15:26:54;;;;;;;3.30;3.00;;;;;;;;;;6184529;23;20408;-88
2023/07/01 15:29:24;;;;;;;3.90;3.60;;;22.90;1.00;;;;;;6184560;23;20415;-86
2023/07/01 15:31:51;;;;;;;3.60;2.83;;;23.00;99.90;;;;;;6184207;23;20396;-86
2023/07/01 15:34:18;;;;;;;3.63;3.33;;;;;;;;;;6184587;23;20863;-87
2023/07/01 15:36:49;;;;;;;3.53;2.90;;;22.80;99.90;;;;;;6183592;23;20405;-87
2023/07/01 15:39:24;;;;;;;9.67;6.50;;;22.80;99.90;;;;;;6184829;23;20381;-87
2023/07/01 15:41:51;;;;;;;5.93;3.27;;;22.80;99.90;;;;;;6184660;23;20430;-88
2023/07/01 15:44:18;;;;;;;6.33;3.63;;;;;;;;;;6184129;23;20439;-86
2023/07/01 15:46:45;;;;;;;9.37;3.80;;;22.70;99.90;;;;;;6185119;23;20396;-87
2023/07/01 15:49:12;;;;;;;4.60;3.23;;;22.40;1.00;;;;;;6184769;23;20412;-88
2023/07/01 15:51:40;;;;;;;7.23;3.90;;;22.70;99.90;;;;;;6184746;23;20396;-88
2023/07/01 15:54:12;;;;;;;4.00;3.60;;;22.70;99.90;;;;;;6177059;23;20432;-89
2023/07/01 15:56:39;;;;;;;5.40;3.17;;;;;;;;;;6172383;23;20400;-89
2023/07/01 15:59:06;;;;;;;2.80;2.60;;;22.90;99.90;;;;;;6174529;23;20480;-89
2023/07/01 16:01:34;;;;;;;4.00;2.80;;;;;;;;;;6178475;23;20455;-89
2023/07/01 16:04:01;;;;;;;5.70;2.70;;;22.80;99.90;;;;;;6173435;23;20460;-88
2023/07/01 16:06:28;;;;;;;5.50;2.90;;;22.70;99.90;;;;;;6171874;23;20412;-87
2023/07/01 16:08:55;;;;;;;3.13;2.83;;;;;;;;;;6171927;23;20412;-88
2023/07/01 16:11:31;;;;;;;3.33;3.03;;;22.50;99.90;;;;;;6171180;23;20404;-89
2023/07/01 16:14:03;;;;;;;4.73;2.63;;;22.70;99.90;;;;;;6173868;23;20427;-88
2023/07/01 16:16:31;;;;;;;3.50;3.10;;;22.50;1.00;;;;;;6175107;23;20408;-88
2023/07/01 16:19:00;;;;;;;2.90;2.70;;;22.20;99.90;;;;;;6177754;23;20730;-89
2023/07/01 16:21:29;;;;;;;3.80;3.07;;;;;;;;;;6175585;23;20474;-89
2023/07/01 16:23:59;;;;;;;4.50;3.10;;;20.60;1.00;;;;;;6176222;23;20491;-88
2023/07/01 16:26:31;;;;;;;4.53;2.70;;;22.20;1.00;;;;;;6183378;23;20596;-89
2023/07/01 16:28:58;;;;;;;3.47;3.17;;;;;;;;;;6184635;23;20458;-86
2023/07/01 16:31:26;;;;;;;4.60;3.70;;;22.00;1.00;;;;;;6184605;23;20389;-87
2023/07/01 16:33:54;;;;;;;7.47;4.00;;;22.10;1.00;;;;;;6177725;23;20432;-88
2023/07/01 16:36:26;;;;;;;5.90;4.00;;;22.00;99.90;;;;;;6168711;23;20416;-89
2023/07/01 16:38:59;;;;;;;3.73;3.43;;;21.90;99.90;;;;;;6170867;23;20412;-91
2023/07/01 16:41:32;;;;;;;6.00;5.13;;;21.90;1.00;;;;;;6171908;23;20578;-90
2023/07/01 16:43:59;;;;;;;6.50;5.53;;;21.90;1.00;;;;;;6171496;23;20440;-89
2023/07/01 16:46:33;;;;;;;5.20;4.07;;;22.00;1.00;;;;;;6172569;23;20467;-89
2023/07/01 16:49:05;;;;;;;4.67;4.20;;;22.00;1.00;;;;;;6168662;23;20388;-89
2023/07/01 16:51:35;;;;;;;4.57;3.73;;;21.90;1.00;;;;;;6170024;23;20397;-90
2023/07/01 16:54:39;;;;;;;3.73;3.30;;;21.80;1.00;;;;;;6171646;23;20440;-89
2023/07/01 16:57:09;;;;;;;3.60;3.30;;;21.90;1.00;;;;;;6168204;23;20412;-89
2023/07/01 16:59:45;;;;;;;4.10;3.70;;;21.90;1.00;;;;;;6175133;23;20440;-89
2023/07/01 17:03:06;;;;;;;3.60;3.30;;;21.90;1.00;;;;;;6175329;23;20428;-89
2023/07/01 17:05:39;;;;;;;4.00;3.17;;;21.90;1.00;;;;;;6177040;23;20396;-89
2023/07/01 17:08:16;;;;;;;3.77;3.47;;;21.90;1.00;;;;;;6169055;23;20714;-89
2023/07/01 17:10:43;;;;;;;3.30;3.00;;;;;;;;;;6172006;23;20372;-89
2023/07/01 17:13:35;;;;;;;4.97;3.97;;;21.90;1.00;;;;;;6182532;23;20421;-86
2023/07/01 17:16:05;;;;;;;4.10;3.37;;;21.80;1.00;;;;;;6180634;23;20435;-88
2023/07/01 17:18:33;;;;;;;4.00;3.60;;;21.70;1.00;;;;;;6169131;23;20404;-89
2023/07/01 17:21:01;;;;;;;7.03;5.40;;;21.60;1.00;;;;;;6167816;23;20447;-89
2023/07/01 17:23:28;;;;;;;5.90;4.37;;;;;;;;;;6168646;23;20424;-89
2023/07/01 17:25:55;;;;;;;4.27;3.87;;;21.40;9.90;;;;;;6169119;23;20399;-90
2023/07/01 17:28:24;;;;;;;6.93;4.47;;;;;;;;;;6170109;23;20447;-89
2023/07/01 17:30:53;;;;;;;3.73;3.37;;;21.30;1.00;;;;;;6169470;23;20483;-89
2023/07/01 17:33:20;;;;;;;4.37;3.90;;;21.20;1.00;;;;;;6172149;23;20452;-90
2023/07/01 17:35:47;;;;;;;9.03;4.50;;;;;;;;;;6170957;23;20436;-89
2023/07/01 17:38:14;;;;;;;3.50;3.20;;;;;;;;;;6176198;23;20411;-91
2023/07/01 17:40:42;;;;;;;5.47;3.97;;;;;;;;;;6176624;23;20411;-89
2023/07/01 17:43:08;;;;;;;4.43;4.03;;;20.50;1.00;;;;;;6183757;23;20440;-89
2023/07/01 17:45:36;;;;;;;5.80;4.00;;;20.30;1.00;;;;;;6183313;23;20384;-88